Time;durP1;ratioP1;P1;durP2;ratioP2;P2;SDS_P1;SDS_P2;PMS_P1;PMS_P2;Temp;Humidity;BMP_temperature;BMP_pressure;BME280_temperature;BME280_humidity;BME280_pressure;Samples;Min_cycle;Max_cycle;Signal;HPM_P1;HPM_P2
2022/12/20 00:00:12;;;;;;;9.38;2.85;;;;;;;8.97;89.87;101362.25;5131663;27;20063;-85
2022/12/20 00:02:37;;;;;;;5.82;2.50;;;;;;;9.03;89.28;101362.22;5121414;27;20126;-84
2022/12/20 00:05:03;;;;;;;5.53;2.72;;;;;;;9.00;89.53;101356.06;5144633;27;20211;-85
2022/12/20 00:07:29;;;;;;;5.75;2.70;;;;;;;9.03;89.47;101359.56;5133082;27;20035;-85
2022/12/20 00:09:54;;;;;;;6.53;2.83;;;;;;;9.06;89.47;101363.97;5114842;27;20122;-85
2022/12/20 00:12:20;;;;;;;6.38;2.60;;;;;;;9.13;88.68;101367.44;5146411;27;20047;-85
2022/12/20 00:14:46;;;;;;;7.07;3.10;;;;;;;9.12;88.77;101355.97;5118456;27;20034;-85
2022/12/20 00:17:11;;;;;;;6.50;2.80;;;;;;;9.10;88.95;101348.94;5154273;27;20114;-85
2022/12/20 00:19:37;;;;;;;6.00;2.63;;;;;;;9.11;89.02;101358.66;5114868;27;20023;-85
2022/12/20 00:22:02;;;;;;;6.43;2.60;;;;;;;9.12;88.52;101355.97;5133479;27;20049;-85
2022/12/20 00:24:29;;;;;;;7.65;2.97;;;;;;;9.12;88.76;101352.47;5115267;27;20034;-85
2022/12/20 00:26:54;;;;;;;5.28;2.85;;;;;;;9.12;89.28;101341.88;5158339;27;20033;-86
2022/12/20 00:29:20;;;;;;;13.65;2.70;;;;;;;9.22;88.12;101348.84;5131740;27;20381;-86
2022/12/20 00:31:45;;;;;;;6.03;2.92;;;;;;;9.26;88.30;101347.94;5116488;27;20049;-85
2022/12/20 00:34:11;;;;;;;5.45;2.78;;;;;;;9.34;87.54;101332.03;5119410;27;20046;-85
2022/12/20 00:36:38;;;;;;;5.43;2.80;;;;;;;9.41;87.14;101336.38;5138625;27;20043;-85
2022/12/20 00:39:06;;;;;;;6.10;3.30;;;;;;;9.39;87.18;101332.84;5124378;27;20501;-85
2022/12/20 00:41:33;;;;;;;5.35;2.60;;;;;;;9.37;87.56;101338.19;5121342;27;20027;-85
2022/12/20 00:43:59;;;;;;;6.60;2.95;;;;;;;9.39;87.27;101327.56;5124575;27;20035;-85
2022/12/20 00:46:25;;;;;;;12.45;3.30;;;;;;;9.49;86.39;101323.94;5128028;27;20481;-85
2022/12/20 00:48:52;;;;;;;10.35;3.20;;;;;;;9.48;86.90;101323.06;5124913;27;20038;-85
2022/12/20 00:51:21;;;;;;;6.63;2.63;;;;;;;9.50;86.69;101311.63;5157766;27;20051;-85
2022/12/20 00:53:47;;;;;;;9.52;3.03;;;;;;;9.51;86.52;101311.59;5156795;27;20031;-85
2022/12/20 00:56:13;;;;;;;12.07;3.45;;;;;;;9.53;86.82;101317.75;5139392;27;20041;-85
2022/12/20 00:58:41;;;;;;;8.60;3.20;;;;;;;9.52;86.68;101323.94;5129022;27;20029;-85
2022/12/20 01:01:25;;;;;;;10.82;2.97;;;;;;;9.52;87.21;101323.03;5118067;27;20041;-85
2022/12/20 01:03:51;;;;;;;4.80;2.78;;;;;;;9.55;86.05;101315.97;5150263;27;20070;-85
2022/12/20 01:06:17;;;;;;;6.60;2.92;;;;;;;9.57;86.64;101324.75;5134722;27;20046;-85
2022/12/20 01:08:43;;;;;;;6.78;3.08;;;;;;;9.62;86.48;101317.66;5113429;27;20496;-85
2022/12/20 01:11:24;;;;;;;8.93;3.33;;;;;;;9.63;86.69;101319.41;5140979;27;20375;-85
2022/12/20 01:13:52;;;;;;;;;;;;;;;9.68;87.55;101320.22;5118486;27;20038;-85
2022/12/20 01:16:21;;;;;;;3.40;1.80;;;;;;;9.67;88.16;101325.56;5155263;27;19961;-85
2022/12/20 01:18:48;;;;;;;6.60;3.10;;;;;;;9.64;89.70;101334.41;5127727;27;20382;-84
2022/12/20 01:21:15;;;;;;;7.38;2.60;;;;;;;9.60;90.67;101337.94;5122879;27;20031;-75
2022/12/20 01:23:41;;;;;;;9.55;2.90;;;;;;;9.55;91.62;101329.19;5120872;27;20035;-75
2022/12/20 01:26:09;;;;;;;5.78;2.85;;;;;;;9.55;91.38;101338.91;5124023;27;20108;-75
2022/12/20 01:28:36;;;;;;;5.68;2.67;;;;;;;9.52;92.60;101338.91;5117321;27;20043;-75
2022/12/20 01:31:05;;;;;;;6.07;3.00;;;;;;;9.47;94.09;101339.84;5117304;27;20543;-75
2022/12/20 01:33:31;;;;;;;8.35;2.92;;;;;;;9.46;94.95;101343.34;5100868;27;20114;-75
2022/12/20 01:35:58;;;;;;;6.40;2.78;;;;;;;9.39;95.88;101340.78;5147613;27;20078;-75
2022/12/20 01:38:24;;;;;;;4.90;2.50;;;;;;;9.34;96.85;101334.66;5135639;27;20484;-75
2022/12/20 01:40:49;;;;;;;5.03;2.40;;;;;;;9.23;97.92;101325.06;5115135;27;20023;-74
2022/12/20 01:43:17;;;;;;;5.22;3.00;;;;;;;9.21;99.12;101324.19;5126295;27;20125;-74
2022/12/20 01:45:43;;;;;;;5.78;2.78;;;;;;;9.20;100.00;101316.31;5141439;27;20121;-75
2022/12/20 01:48:10;;;;;;;5.10;2.47;;;;;;;9.14;100.00;101319.84;5120749;27;20065;-74
2022/12/20 01:50:36;;;;;;;5.53;2.80;;;;;;;9.07;100.00;101320.78;5133815;27;20062;-75
2022/12/20 01:53:04;;;;;;;4.85;2.60;;;;;;;9.04;100.00;101320.81;5113699;28;20050;-75
2022/12/20 01:55:31;;;;;;;6.38;3.55;;;;;;;8.97;100.00;101314.69;5114480;28;20096;-74
2022/12/20 01:58:18;;;;;;;7.57;3.13;;;;;;;8.97;100.00;101293.56;5113509;28;20031;-74
2022/12/20 02:00:44;;;;;;;5.85;3.05;;;;;;;8.87;100.00;101291.00;5132820;27;20035;-75
2022/12/20 02:03:13;;;;;;;5.38;2.70;;;;;;;8.86;100.00;101290.16;5096756;28;20031;-75
2022/12/20 02:05:41;;;;;;;4.20;2.80;;;;;;;8.85;100.00;101295.44;5102984;28;20046;-74
2022/12/20 02:08:09;;;;;;;6.30;3.10;;;;;;;8.78;100.00;101284.06;5127519;27;20031;-74
2022/12/20 02:10:50;;;;;;;5.18;2.70;;;;;;;8.78;100.00;101284.94;5125499;27;20069;-74
2022/12/20 02:13:45;;;;;;;5.65;2.92;;;;;;;8.78;100.00;101278.78;5136550;27;20358;-74
2022/12/20 02:16:17;;;;;;;7.63;3.13;;;;;;;8.77;100.00;101269.94;5116481;27;20063;-75
2022/12/20 02:18:57;;;;;;;6.75;3.08;;;;;;;8.77;100.00;101263.81;5113292;28;20039;-74
2022/12/20 02:21:54;;;;;;;6.50;2.83;;;;;;;8.77;100.00;101262.03;5131290;27;20579;-75
2022/12/20 02:24:50;;;;;;;9.77;4.13;;;;;;;8.73;100.00;101251.50;5128410;27;20073;-74
2022/12/20 02:27:42;;;;;;;7.22;3.60;;;;;;;8.73;100.00;101257.69;5118507;27;20019;-74
2022/12/20 02:30:15;;;;;;;8.90;3.37;;;;;;;8.75;100.00;101248.00;5134539;27;20031;-74
2022/12/20 02:32:54;;;;;;;9.18;3.28;;;;;;;8.70;100.00;101251.53;5125369;27;20027;-75
2022/12/20 02:35:24;;;;;;;6.82;3.15;;;;;;;8.70;100.00;101246.25;5115592;27;20118;-75
2022/12/20 02:37:56;;;;;;;6.13;3.10;;;;;;;8.67;100.00;101241.00;5133429;27;20035;-75
2022/12/20 02:40:30;;;;;;;10.02;2.92;;;;;;;8.62;100.00;101241.03;5117955;27;20578;-75
2022/12/20 02:42:59;;;;;;;7.10;2.78;;;;;;;8.61;100.00;101245.44;5124477;27;20031;-75
2022/12/20 02:45:28;;;;;;;5.60;2.42;;;;;;;8.58;100.00;101240.19;5112532;28;20465;-75
2022/12/20 02:48:08;;;;;;;5.97;2.70;;;;;;;8.59;100.00;101246.34;5126048;27;20024;-75
2022/12/20 02:50:38;;;;;;;7.07;3.60;;;;;;;8.55;100.00;101241.97;5116966;27;20048;-74
2022/12/20 02:53:05;;;;;;;4.60;2.53;;;;;;;8.55;100.00;101239.31;5095562;28;20092;-75
2022/12/20 02:55:40;;;;;;;4.75;2.42;;;;;;;8.55;100.00;101226.13;5092143;28;20024;-75
2022/12/20 02:58:16;;;;;;;3.20;2.33;;;;;;;8.55;100.00;101232.28;5093517;28;20028;-75
2022/12/20 03:00:46;;;;;;;3.53;2.42;;;;;;;8.52;100.00;101234.06;5105910;28;20031;-75
2022/12/20 03:03:24;;;;;;;3.90;2.40;;;;;;;8.51;100.00;101227.91;5075112;28;20032;-74
2022/12/20 03:05:53;;;;;;;5.15;2.30;;;;;;;8.57;100.00;101229.63;5088106;28;20127;-75
2022/12/20 03:08:22;;;;;;;7.68;2.42;;;;;;;8.56;100.00;101233.16;5092326;28;20050;-75
2022/12/20 03:10:50;;;;;;;3.97;2.30;;;;;;;8.56;100.00;101225.25;5091648;28;20020;-75
2022/12/20 03:13:16;;;;;;;6.35;2.55;;;;;;;8.60;100.00;101230.50;5089057;28;20028;-75
2022/12/20 03:15:54;;;;;;;4.03;2.20;;;;;;;8.62;100.00;101227.84;5105578;28;20089;-75
2022/12/20 03:18:20;;;;;;;5.32;2.60;;;;;;;8.65;100.00;101226.94;5072538;28;20052;-75
2022/12/20 03:20:45;;;;;;;4.72;2.45;;;;;;;8.68;100.00;101232.19;5083195;28;20380;-75
2022/12/20 03:23:11;;;;;;;4.43;2.53;;;;;;;8.66;100.00;101234.84;5095146;28;20130;-75
2022/12/20 03:25:37;;;;;;;6.43;2.15;;;;;;;8.73;100.00;101230.38;5077878;28;20032;-75
2022/12/20 03:28:04;;;;;;;4.95;2.30;;;;;;;8.76;100.00;101223.31;5091813;28;20540;-75
2022/12/20 03:30:30;;;;;;;7.22;2.40;;;;;;;8.78;100.00;101226.84;5093239;28;20159;-75
2022/12/20 03:32:56;;;;;;;3.67;2.20;;;;;;;8.80;100.00;101213.59;5077806;28;20031;-75
2022/12/20 03:35:22;;;;;;;7.15;2.50;;;;;;;8.83;100.00;101213.59;5094884;28;20034;-75
2022/12/20 03:37:47;;;;;;;3.90;2.20;;;;;;;8.84;100.00;101220.63;5082957;28;20028;-75
2022/12/20 03:40:13;;;;;;;4.95;2.10;;;;;;;8.95;100.00;101220.50;5099688;28;20044;-75
2022/12/20 03:42:39;;;;;;;3.95;2.05;;;;;;;8.97;100.00;101226.66;5091281;28;20190;-75
2022/12/20 03:45:05;;;;;;;6.15;2.72;;;;;;;9.09;100.00;101229.19;5108213;28;20052;-75
2022/12/20 03:47:30;;;;;;;4.15;2.05;;;;;;;9.12;100.00;101239.72;5109138;28;20028;-76
2022/12/20 03:49:56;;;;;;;3.47;2.47;;;;;;;9.16;100.00;101237.94;5092992;27;20130;-75
2022/12/20 03:52:22;;;;;;;4.22;2.13;;;;;;;9.22;100.00;101237.88;5149600;27;20026;-75
2022/12/20 03:54:48;;;;;;;4.53;2.25;;;;;;;9.20;100.00;101222.03;5106183;27;20080;-76
2022/12/20 03:57:17;;;;;;;4.88;2.30;;;;;;;9.22;100.00;101216.72;5132188;27;20038;-76
2022/12/20 03:59:45;;;;;;;3.00;2.00;;;;;;;9.33;99.81;101222.78;5079167;27;20061;-76
2022/12/20 04:02:13;;;;;;;3.75;2.22;;;;;;;9.40;99.15;101229.75;5118206;27;20030;-84
2022/12/20 04:04:39;;;;;;;5.57;2.35;;;;;;;9.45;98.87;101217.38;5131200;27;20023;-84
2022/12/20 04:07:05;;;;;;;3.28;2.05;;;;;;;9.49;98.86;101212.91;5118098;27;20030;-85
2022/12/20 04:09:32;;;;;;;3.70;2.22;;;;;;;9.47;99.08;101214.72;5116514;27;20391;-84
2022/12/20 04:12:04;;;;;;;5.38;2.42;;;;;;;9.47;98.92;101228.81;5134787;27;20035;-84
2022/12/20 04:14:32;;;;;;;6.07;2.30;;;;;;;9.50;98.80;101225.25;5124856;27;20028;-84
2022/12/20 04:16:58;;;;;;;4.88;2.47;;;;;;;9.58;98.52;101217.22;5129413;27;20011;-84
2022/12/20 04:19:23;;;;;;;6.38;2.10;;;;;;;9.61;98.00;101215.41;5129215;27;20152;-84
2022/12/20 04:21:49;;;;;;;3.53;2.03;;;;;;;9.61;97.76;101225.13;5130711;27;20038;-85
2022/12/20 04:24:16;;;;;;;3.90;2.20;;;;;;;9.74;97.13;101220.56;5117943;27;20042;-85
2022/12/20 04:26:48;;;;;;;3.83;2.15;;;;;;;9.75;96.68;101217.03;5135001;27;20035;-85
2022/12/20 04:29:14;;;;;;;5.78;2.25;;;;;;;9.78;96.28;101216.97;5110339;27;20505;-85
2022/12/20 04:31:41;;;;;;;4.35;2.00;;;;;;;9.80;96.46;101217.84;5118517;27;20035;-85
2022/12/20 04:34:07;;;;;;;5.70;2.10;;;;;;;9.83;95.58;101208.09;5119165;27;20039;-85
2022/12/20 04:36:33;;;;;;;3.35;1.90;;;;;;;9.89;95.63;101210.66;5117113;27;20482;-85
2022/12/20 04:39:02;;;;;;;4.22;1.95;;;;;;;9.92;95.41;101206.25;5118233;27;20022;-85
2022/12/20 04:41:37;;;;;;;4.05;1.83;;;;;;;9.85;95.53;101206.31;5132800;27;20035;-85
2022/12/20 04:44:08;;;;;;;5.55;2.45;;;;;;;9.86;95.67;101209.81;5118063;27;20044;-85
2022/12/20 04:46:36;;;;;;;4.22;2.30;;;;;;;9.89;95.72;101213.31;5115134;27;20031;-84
2022/12/20 04:49:03;;;;;;;6.00;2.50;;;;;;;9.83;96.08;101201.94;5133217;27;20039;-85
2022/12/20 04:51:34;;;;;;;5.53;2.20;;;;;;;9.89;95.22;101201.84;5132013;27;20054;-85
2022/12/20 04:54:00;;;;;;;4.40;2.30;;;;;;;9.92;95.35;101208.88;5134440;27;20027;-85
2022/12/20 04:56:37;;;;;;;6.75;2.22;;;;;;;9.91;95.07;101205.34;5133126;27;20033;-85
2022/12/20 04:59:07;;;;;;;;;;;;;;;9.93;96.10;101200.91;5126774;27;20034;-85
2022/12/20 05:01:33;;;;;;;8.38;2.30;;;;;;;9.89;95.35;101202.72;5117804;27;19914;-85
2022/12/20 05:03:59;;;;;;;4.13;2.20;;;;;;;9.90;95.59;101209.75;5127559;27;20034;-85
2022/12/20 05:06:29;;;;;;;5.20;1.95;;;;;;;9.95;94.99;101200.91;5121657;27;20490;-84
2022/12/20 05:08:55;;;;;;;10.95;2.10;;;;;;;9.96;95.15;101192.06;5112667;27;20037;-84
2022/12/20 05:11:21;;;;;;;5.47;2.30;;;;;;;9.95;94.68;101183.25;5131327;27;20038;-85
2022/12/20 05:13:46;;;;;;;3.83;2.08;;;;;;;9.94;94.92;101181.50;5095942;27;20027;-85
2022/12/20 05:16:15;;;;;;;4.30;2.28;;;;;;;9.94;94.74;101181.50;5122200;27;20039;-85
2022/12/20 05:18:41;;;;;;;6.80;2.25;;;;;;;9.95;95.13;101170.03;5138757;27;20495;-84
2022/12/20 05:27:14;;;;;;;3.85;2.08;;;;;;;9.97;95.67;101152.34;5107648;27;20074;-85
2022/12/20 05:29:40;;;;;;;6.90;2.00;;;;;;;9.95;95.66;101154.16;5126385;27;20038;-85
2022/12/20 05:32:06;;;;;;;3.55;2.10;;;;;;;9.96;95.61;101163.81;5138191;27;20107;-84
2022/12/20 05:34:36;;;;;;;8.23;2.40;;;;;;;9.99;95.53;101155.88;5129647;27;20019;-85
2022/12/20 05:37:02;;;;;;;5.90;2.22;;;;;;;9.99;95.67;101162.91;5120435;27;20042;-85
2022/12/20 05:39:30;;;;;;;3.58;2.40;;;;;;;9.97;95.96;101152.34;5136795;27;20027;-85
2022/12/20 05:41:59;;;;;;;5.30;2.28;;;;;;;9.94;95.90;101152.41;5134112;27;20083;-85
2022/12/20 05:44:26;;;;;;;7.28;2.95;;;;;;;9.97;96.18;101141.78;5135052;27;20484;-85
2022/12/20 05:46:55;;;;;;;3.90;2.28;;;;;;;10.02;95.59;101142.59;5135465;27;20178;-85
2022/12/20 05:49:25;;;;;;;3.70;2.30;;;;;;;9.99;95.81;101134.69;5133976;27;20169;-85
2022/12/20 05:51:51;;;;;;;4.75;2.83;;;;;;;9.95;95.82;101132.13;5123609;27;20381;-85
2022/12/20 05:54:24;;;;;;;9.63;3.25;;;;;;;9.96;96.10;101136.50;5098558;27;20028;-85
2022/12/20 05:57:09;;;;;;;6.15;2.90;;;;;;;9.97;95.79;101128.53;5133543;27;20390;-85
2022/12/20 05:59:38;;;;;;;6.90;2.17;;;;;;;9.92;96.39;101130.38;5110323;27;20054;-85
2022/12/20 06:02:06;;;;;;;3.90;2.35;;;;;;;9.91;95.94;101115.38;5123155;27;20141;-85
2022/12/20 06:04:33;;;;;;;3.88;1.92;;;;;;;9.88;96.04;101112.81;5109811;27;20051;-85
2022/12/20 06:07:04;;;;;;;8.55;2.45;;;;;;;9.83;96.19;101122.56;5115407;27;20035;-85
2022/12/20 06:09:31;;;;;;;4.97;2.13;;;;;;;9.79;96.24;101111.19;5111465;27;20051;-85
2022/12/20 06:12:07;;;;;;;3.92;2.17;;;;;;;9.81;96.49;101113.78;5124717;27;20379;-85
2022/12/20 06:14:36;;;;;;;3.55;2.10;;;;;;;9.76;95.84;101105.91;5098926;27;20043;-85
2022/12/20 06:17:03;;;;;;;3.28;2.05;;;;;;;9.80;95.97;101096.19;5127036;27;20040;-86
2022/12/20 06:19:30;;;;;;;5.35;1.90;;;;;;;9.76;96.10;101103.25;5125159;27;20348;-86
2022/12/20 06:21:57;;;;;;;6.07;2.20;;;;;;;9.74;96.22;101097.13;5129851;27;20027;-85
2022/12/20 06:24:33;;;;;;;5.18;1.80;;;;;;;9.76;95.87;101099.75;5130545;27;20035;-85
2022/12/20 06:26:59;;;;;;;5.63;2.10;;;;;;;9.75;95.85;101088.31;5127175;27;20347;-85
2022/12/20 06:29:25;;;;;;;6.43;2.00;;;;;;;9.75;95.39;101106.81;5114008;27;20498;-85
2022/12/20 06:31:59;;;;;;;6.05;1.98;;;;;;;9.75;95.51;101108.59;5109145;27;20092;-84
2022/12/20 06:34:26;;;;;;;3.35;1.75;;;;;;;9.73;95.19;101094.50;5119594;27;20051;-84
2022/12/20 06:36:51;;;;;;;2.88;2.00;;;;;;;9.71;95.01;101109.53;5128079;27;20126;-85
2022/12/20 06:39:21;;;;;;;5.78;1.77;;;;;;;9.70;95.17;101113.94;5127612;27;20035;-85
2022/12/20 06:41:55;;;;;;;3.28;1.75;;;;;;;9.77;94.56;101104.16;5119080;27;20039;-85
2022/12/20 06:44:22;;;;;;;4.28;2.10;;;;;;;9.73;94.71;101116.53;5120303;27;20092;-85
2022/12/20 06:46:49;;;;;;;5.45;2.10;;;;;;;9.73;94.09;101103.31;5106874;28;20471;-85
2022/12/20 06:49:14;;;;;;;4.75;2.00;;;;;;;9.70;94.13;101100.72;5113179;27;20035;-86
2022/12/20 06:51:41;;;;;;;7.68;2.35;;;;;;;9.68;94.00;101107.78;5108814;28;20057;-85
2022/12/20 06:54:07;;;;;;;3.50;1.80;;;;;;;9.66;94.02;101105.16;5106631;27;20027;-85
2022/12/20 06:56:33;;;;;;;2.47;1.67;;;;;;;9.67;93.53;101098.13;5110342;28;20114;-85
2022/12/20 06:58:59;;;;;;;7.13;2.35;;;;;;;9.71;93.39;101105.09;5104104;27;20118;-84
2022/12/20 07:01:24;;;;;;;8.40;2.10;;;;;;;9.69;92.88;101105.16;5114365;27;20407;-85
2022/12/20 07:03:50;;;;;;;5.05;2.10;;;;;;;9.72;92.57;101092.75;5113866;28;20103;-85
2022/12/20 07:06:15;;;;;;;4.55;2.00;;;;;;;9.75;92.80;101109.47;5093511;27;20040;-84
2022/12/20 07:08:41;;;;;;;4.30;2.20;;;;;;;9.78;92.42;101117.34;5126612;27;20046;-85
2022/12/20 07:11:07;;;;;;;2.65;1.50;;;;;;;9.80;91.86;101104.97;5108369;27;20019;-85
2022/12/20 07:13:33;;;;;;;3.28;1.70;;;;;;;9.84;91.25;101106.69;5127307;27;20027;-85
2022/12/20 07:16:00;;;;;;;4.07;1.80;;;;;;;9.82;91.03;101105.84;5129935;27;20351;-86
2022/12/20 07:18:26;;;;;;;2.28;1.60;;;;;;;9.87;90.86;101096.06;5113828;27;20376;-85
2022/12/20 07:20:52;;;;;;;4.00;1.95;;;;;;;9.86;90.88;101099.59;5117985;27;20039;-85
2022/12/20 07:23:17;;;;;;;4.03;2.08;;;;;;;9.89;90.63;101101.31;5113118;27;20518;-85
2022/12/20 07:25:43;;;;;;;4.40;1.80;;;;;;;9.91;90.30;101107.47;5122890;27;20427;-85
2022/12/20 07:28:08;;;;;;;3.83;1.70;;;;;;;9.91;90.29;101094.22;5114127;27;20119;-85
2022/12/20 07:30:35;;;;;;;3.75;1.80;;;;;;;9.94;89.98;101094.22;5125136;27;20024;-84
2022/12/20 07:33:01;;;;;;;3.28;1.80;;;;;;;9.98;89.38;101098.53;5124679;27;20042;-85
2022/12/20 07:35:26;;;;;;;2.60;1.70;;;;;;;9.99;89.48;101095.00;5118437;27;20039;-85
2022/12/20 07:37:52;;;;;;;3.25;1.70;;;;;;;10.03;88.99;101109.91;5118062;27;20030;-85
2022/12/20 07:40:17;;;;;;;5.25;2.08;;;;;;;10.02;89.03;101109.97;5096129;27;20181;-85
2022/12/20 07:42:43;;;;;;;3.58;1.63;;;;;;;10.02;88.89;101113.47;5125196;27;20043;-85
2022/12/20 07:45:11;;;;;;;5.35;1.77;;;;;;;10.00;88.95;101109.97;5108555;28;20036;-85
2022/12/20 07:47:36;;;;;;;3.83;1.50;;;;;;;9.98;89.50;101111.75;5130766;27;20030;-85
2022/12/20 07:50:02;;;;;;;4.55;1.85;;;;;;;9.96;89.29;101110.03;5134517;27;20117;-84
2022/12/20 07:52:31;;;;;;;3.88;1.83;;;;;;;10.02;88.65;101117.91;5116632;27;20056;-85
2022/12/20 07:55:01;;;;;;;4.45;1.70;;;;;;;10.06;88.01;101125.78;5118556;27;20038;-86
2022/12/20 07:57:32;;;;;;;4.25;1.63;;;;;;;10.10;88.26;101131.88;5117411;27;20028;-85
2022/12/20 08:00:00;;;;;;;2.28;1.38;;;;;;;10.11;88.09;101129.22;5115180;27;20035;-86
2022/12/20 08:02:32;;;;;;;4.35;1.90;;;;;;;10.18;87.81;101134.41;5116215;28;20115;-85
2022/12/20 08:04:58;;;;;;;3.85;1.65;;;;;;;10.20;88.83;101135.25;5127792;27;20100;-86
2022/12/20 08:07:26;;;;;;;5.65;2.00;;;;;;;10.15;89.96;101135.31;5127480;27;20058;-84
2022/12/20 08:09:52;;;;;;;4.07;1.80;;;;;;;10.10;90.92;101134.53;5103458;27;20027;-83
2022/12/20 08:12:18;;;;;;;6.20;2.00;;;;;;;10.07;92.28;101132.81;5132213;27;20043;-84
2022/12/20 08:14:44;;;;;;;6.85;1.90;;;;;;;10.00;93.27;101124.97;5132442;27;20047;-84
2022/12/20 08:17:10;;;;;;;8.00;2.22;;;;;;;9.95;93.89;101117.09;5125359;27;20031;-84
2022/12/20 08:19:37;;;;;;;4.47;2.03;;;;;;;9.96;93.48;101116.19;5113574;27;20040;-83
2022/12/20 08:22:03;;;;;;;6.40;1.90;;;;;;;9.90;94.33;101119.81;5113016;28;20040;-83
2022/12/20 08:24:29;;;;;;;3.40;1.65;;;;;;;9.82;94.96;101126.13;5114979;28;20035;-84
2022/12/20 08:26:55;;;;;;;7.40;1.85;;;;;;;9.81;95.39;101127.00;5116091;28;20498;-84
2022/12/20 08:29:20;;;;;;;6.38;1.55;;;;;;;9.80;95.54;101130.56;5115210;28;20034;-84
2022/12/20 08:31:46;;;;;;;4.75;1.83;;;;;;;9.75;95.98;101124.47;5118192;28;20389;-84
2022/12/20 08:34:11;;;;;;;4.07;2.00;;;;;;;9.80;96.00;101125.28;5104810;28;20551;-84
2022/12/20 08:36:36;;;;;;;5.18;1.98;;;;;;;9.80;96.75;101126.13;5099949;28;20044;-85
2022/12/20 08:39:03;;;;;;;4.75;1.90;;;;;;;9.73;97.82;101134.19;5126693;28;20038;-85
2022/12/20 08:41:29;;;;;;;3.00;1.60;;;;;;;9.68;97.98;101127.19;5111953;28;20062;-83
2022/12/20 08:43:54;;;;;;;3.78;1.77;;;;;;;9.64;98.18;101130.78;5111835;28;20479;-84
2022/12/20 08:46:23;;;;;;;7.03;2.10;;;;;;;9.60;99.27;101129.06;5121025;27;20038;-84
2022/12/20 08:48:48;;;;;;;6.57;1.95;;;;;;;9.51;100.00;101123.88;5136613;27;20475;-85
2022/12/20 08:51:14;;;;;;;4.65;2.08;;;;;;;9.51;100.00;101129.16;5092407;28;20055;-82
2022/12/20 08:53:39;;;;;;;5.40;1.90;;;;;;;9.44;100.00;101109.84;5090053;28;20031;-81
2022/12/20 08:56:16;;;;;;;4.72;1.85;;;;;;;9.53;100.00;101113.31;5081977;28;20424;-81
2022/12/20 08:58:43;;;;;;;3.22;1.85;;;;;;;9.43;100.00;101109.91;5112957;28;20395;-82
2022/12/20 09:01:12;;;;;;;5.38;2.00;;;;;;;9.40;100.00;101115.22;5108843;27;20479;-82
2022/12/20 09:03:39;;;;;;;5.90;2.00;;;;;;;9.39;100.00;101111.69;5078420;28;20119;-83
2022/12/20 09:06:12;;;;;;;4.70;1.83;;;;;;;9.42;100.00;101124.00;5096326;28;20115;-83
2022/12/20 09:08:39;;;;;;;3.92;1.90;;;;;;;9.42;100.00;101109.03;5110730;28;20042;-82
2022/12/20 09:11:11;;;;;;;6.25;2.15;;;;;;;9.37;100.00;101110.84;5103838;28;20404;-83
2022/12/20 09:13:36;;;;;;;3.78;2.00;;;;;;;9.34;100.00;101110.88;5087426;28;20039;-83
2022/12/20 09:16:03;;;;;;;5.13;2.08;;;;;;;9.36;100.00;101109.09;5096175;28;20024;-84
2022/12/20 09:18:30;;;;;;;5.28;2.13;;;;;;;9.34;100.00;101099.44;5106717;28;20092;-83
2022/12/20 09:20:58;;;;;;;6.68;2.20;;;;;;;9.35;100.00;101101.22;5102323;28;20092;-83
2022/12/20 09:23:24;;;;;;;4.07;1.98;;;;;;;9.34;100.00;101092.38;5116437;28;20040;-82
2022/12/20 09:25:49;;;;;;;5.20;2.00;;;;;;;9.38;100.00;101098.50;5084176;28;20123;-82
2022/12/20 09:28:15;;;;;;;3.13;2.00;;;;;;;9.32;100.00;101099.47;5096091;28;20040;-82
2022/12/20 09:30:40;;;;;;;4.38;2.00;;;;;;;9.32;100.00;101096.84;5092191;28;20035;-81
2022/12/20 09:33:06;;;;;;;6.72;2.40;;;;;;;9.34;100.00;101102.06;5080180;28;20068;-83
2022/12/20 09:35:32;;;;;;;2.88;2.05;;;;;;;9.36;100.00;101105.59;5095951;28;20020;-83
2022/12/20 09:37:58;;;;;;;5.07;2.00;;;;;;;9.36;100.00;101105.59;5111678;28;20383;-83
2022/12/20 09:40:28;;;;;;;5.18;2.38;;;;;;;9.34;100.00;101110.00;5104532;28;20023;-82
2022/12/20 09:42:53;;;;;;;5.50;2.38;;;;;;;9.32;100.00;101117.97;5109406;27;20024;-82
2022/12/20 09:45:28;;;;;;;5.40;2.63;;;;;;;9.28;100.00;101108.31;5096060;28;20051;-83
2022/12/20 09:47:54;;;;;;;4.43;2.40;;;;;;;9.32;100.00;101109.16;5094285;28;20383;-83
2022/12/20 09:50:36;;;;;;;6.85;2.80;;;;;;;9.27;100.00;101103.91;5097957;27;20035;-83
2022/12/20 09:53:10;;;;;;;6.50;2.63;;;;;;;9.28;100.00;101104.81;5136472;27;20043;-83
2022/12/20 09:55:49;;;;;;;8.52;3.20;;;;;;;9.23;100.00;101097.81;5149417;27;20026;-83
2022/12/20 09:58:15;;;;;;;4.68;2.55;;;;;;;9.26;100.00;101108.31;5129919;27;20038;-82
2022/12/20 10:00:48;;;;;;;6.22;2.92;;;;;;;9.24;100.00;101101.31;5151022;27;20015;-83
2022/12/20 10:03:20;;;;;;;5.85;2.95;;;;;;;9.25;100.00;101105.72;5147370;27;20033;-83
2022/12/20 10:05:52;;;;;;;5.38;2.47;;;;;;;9.24;100.00;101088.09;5140089;27;20139;-83
2022/12/20 10:08:36;;;;;;;6.97;2.60;;;;;;;9.28;100.00;101096.88;5146225;27;20043;-83
2022/12/20 10:11:12;;;;;;;4.85;2.40;;;;;;;9.31;100.00;101097.72;5152423;27;20714;-83
2022/12/20 10:14:10;;;;;;;3.83;1.95;;;;;;;9.32;100.00;101086.25;5147857;27;20079;-83
2022/12/20 10:16:41;;;;;;;5.95;2.15;;;;;;;9.37;100.00;101092.34;5129314;27;20394;-82
2022/12/20 10:19:28;;;;;;;5.90;2.53;;;;;;;9.41;100.00;101093.19;5136211;27;20035;-83
2022/12/20 10:22:10;;;;;;;7.88;2.65;;;;;;;9.40;100.00;101089.66;5149791;27;20518;-83
2022/12/20 10:24:37;;;;;;;6.40;2.88;;;;;;;9.44;100.00;101093.13;5128633;27;20073;-83
2022/12/20 10:27:14;;;;;;;6.25;2.33;;;;;;;9.44;100.00;101094.00;5134630;27;20023;-83
2022/12/20 10:29:40;;;;;;;6.88;2.38;;;;;;;9.45;100.00;101090.47;5120972;27;20041;-83
2022/12/20 10:32:13;;;;;;;7.15;2.60;;;;;;;9.46;100.00;101092.22;5121106;27;20382;-83
2022/12/20 10:34:45;;;;;;;5.20;2.35;;;;;;;9.48;100.00;101094.84;5139415;27;20039;-83
2022/12/20 10:37:14;;;;;;;;;;;;;;;9.63;100.00;101083.19;5136347;27;20083;-83
2022/12/20 10:39:50;;;;;;;6.70;2.50;;;;;;;9.58;100.00;101082.38;5117202;27;20354;-83
2022/12/20 10:42:39;;;;;;;4.28;2.50;;;;;;;9.62;100.00;101079.69;5139031;27;20035;-83
2022/12/20 10:45:28;;;;;;;5.28;2.42;;;;;;;9.69;100.00;101081.34;5117233;27;20382;-83
2022/12/20 10:47:58;;;;;;;6.22;2.35;;;;;;;9.74;100.00;101068.03;5116922;27;20076;-83
2022/12/20 10:50:24;;;;;;;6.13;2.50;;;;;;;9.73;100.00;101076.88;5135276;27;20039;-83
2022/12/20 10:53:08;;;;;;;5.38;2.42;;;;;;;9.74;100.00;101077.75;5143353;27;20082;-83
2022/12/20 10:55:39;;;;;;;4.20;2.67;;;;;;;9.76;100.00;101075.94;5134093;27;20073;-83
2022/12/20 10:58:14;;;;;;;6.22;2.15;;;;;;;9.71;100.00;101069.84;5135198;27;20051;-83
2022/12/20 11:00:40;;;;;;;6.75;2.53;;;;;;;9.75;100.00;101066.28;5123202;27;20053;-83
2022/12/20 11:03:14;;;;;;;9.43;2.65;;;;;;;9.68;100.00;101069.00;5131417;27;20114;-84
2022/12/20 11:05:51;;;;;;;7.57;3.08;;;;;;;9.59;100.00;101063.84;5144801;27;20053;-84
2022/12/20 11:08:17;;;;;;;4.75;2.85;;;;;;;9.65;100.00;101063.75;5133589;27;20038;-84
2022/12/20 11:10:43;;;;;;;6.35;2.30;;;;;;;9.65;100.00;101066.41;5140863;27;20033;-84
2022/12/20 11:13:22;;;;;;;4.45;2.40;;;;;;;9.62;100.00;101071.75;5135018;27;20102;-83
2022/12/20 11:15:50;;;;;;;5.47;2.83;;;;;;;9.59;100.00;101053.25;5139451;27;20031;-84
2022/12/20 11:18:41;;;;;;;5.63;2.72;;;;;;;9.62;100.00;101061.16;5145622;27;20038;-83
2022/12/20 11:21:15;;;;;;;13.52;3.45;;;;;;;9.60;100.00;101055.03;5126498;27;20034;-83
2022/12/20 11:23:47;;;;;;;7.25;3.50;;;;;;;9.60;100.00;101060.31;5119606;27;20039;-83
2022/12/20 11:26:40;;;;;;;5.65;2.58;;;;;;;9.59;100.00;101057.69;5129753;27;20062;-83
2022/12/20 11:29:36;;;;;;;7.90;3.08;;;;;;;9.60;100.00;101062.97;5135695;27;20046;-84
2022/12/20 11:32:07;;;;;;;7.80;3.40;;;;;;;9.59;100.00;101050.63;5119084;27;20099;-83
2022/12/20 11:34:53;;;;;;;11.82;3.20;;;;;;;9.59;100.00;101050.63;5147080;27;20043;-84
2022/12/20 11:37:35;;;;;;;7.20;2.72;;;;;;;9.60;100.00;101047.09;5143852;27;20026;-83
2022/12/20 11:40:10;;;;;;;5.95;2.70;;;;;;;9.61;100.00;101046.19;5135253;27;20062;-84
2022/12/20 11:43:00;;;;;;;6.25;2.80;;;;;;;9.60;100.00;101047.09;5134609;27;20476;-84
2022/12/20 11:45:50;;;;;;;4.25;2.70;;;;;;;9.59;100.00;101045.31;5140974;27;20031;-84